sensor_id;sensor_type;location;lat;lon;timestamp;P1;durP1;ratioP1;P2;durP2;ratioP2
29728;SDS011;20055;51.498;11.960;2022-12-18T00:00:48;120.68;;;44.00;;
29728;SDS011;20055;51.498;11.960;2022-12-18T00:03:15;129.82;;;43.55;;
29728;SDS011;20055;51.498;11.960;2022-12-18T00:05:51;132.07;;;47.58;;
29728;SDS011;20055;51.498;11.960;2022-12-18T00:08:18;125.53;;;46.85;;
29728;SDS011;20055;51.498;11.960;2022-12-18T00:10:45;125.68;;;44.22;;
29728;SDS011;20055;51.498;11.960;2022-12-18T00:13:11;120.20;;;44.80;;
29728;SDS011;20055;51.498;11.960;2022-12-18T00:15:38;137.45;;;47.88;;
29728;SDS011;20055;51.498;11.960;2022-12-18T00:18:05;161.65;;;49.22;;
29728;SDS011;20055;51.498;11.960;2022-12-18T00:20:35;147.88;;;46.65;;
29728;SDS011;20055;51.498;11.960;2022-12-18T00:23:02;142.60;;;45.78;;
29728;SDS011;20055;51.498;11.960;2022-12-18T00:25:28;161.05;;;46.53;;
29728;SDS011;20055;51.498;11.960;2022-12-18T00:27:55;165.88;;;46.22;;
29728;SDS011;20055;51.498;11.960;2022-12-18T00:30:21;143.15;;;45.13;;
29728;SDS011;20055;51.498;11.960;2022-12-18T00:32:48;124.25;;;42.00;;
29728;SDS011;20055;51.498;11.960;2022-12-18T00:35:14;137.60;;;45.92;;
29728;SDS011;20055;51.498;11.960;2022-12-18T00:37:41;129.60;;;44.03;;
29728;SDS011;20055;51.498;11.960;2022-12-18T00:40:07;127.60;;;45.17;;
29728;SDS011;20055;51.498;11.960;2022-12-18T00:42:36;164.63;;;41.03;;
29728;SDS011;20055;51.498;11.960;2022-12-18T00:45:21;113.35;;;40.28;;
29728;SDS011;20055;51.498;11.960;2022-12-18T00:47:49;133.65;;;40.53;;
29728;SDS011;20055;51.498;11.960;2022-12-18T00:50:15;124.72;;;40.42;;
29728;SDS011;20055;51.498;11.960;2022-12-18T00:52:42;127.60;;;40.83;;
29728;SDS011;20055;51.498;11.960;2022-12-18T00:55:09;101.90;;;38.80;;
29728;SDS011;20055;51.498;11.960;2022-12-18T00:57:36;119.07;;;40.47;;
29728;SDS011;20055;51.498;11.960;2022-12-18T01:00:04;123.32;;;42.17;;
29728;SDS011;20055;51.498;11.960;2022-12-18T01:02:31;109.03;;;40.30;;
29728;SDS011;20055;51.498;11.960;2022-12-18T01:04:58;102.35;;;37.42;;
29728;SDS011;20055;51.498;11.960;2022-12-18T01:07:24;113.82;;;39.47;;
29728;SDS011;20055;51.498;11.960;2022-12-18T01:09:51;105.18;;;38.38;;
29728;SDS011;20055;51.498;11.960;2022-12-18T01:12:17;111.68;;;38.65;;
29728;SDS011;20055;51.498;11.960;2022-12-18T01:14:44;93.38;;;35.45;;
29728;SDS011;20055;51.498;11.960;2022-12-18T01:17:11;93.38;;;35.47;;
29728;SDS011;20055;51.498;11.960;2022-12-18T01:19:37;101.82;;;36.35;;
29728;SDS011;20055;51.498;11.960;2022-12-18T01:22:04;101.60;;;38.50;;
29728;SDS011;20055;51.498;11.960;2022-12-18T01:24:30;104.68;;;39.05;;
29728;SDS011;20055;51.498;11.960;2022-12-18T01:26:57;99.15;;;37.95;;
29728;SDS011;20055;51.498;11.960;2022-12-18T01:29:23;107.97;;;40.53;;
29728;SDS011;20055;51.498;11.960;2022-12-18T01:31:50;96.03;;;39.28;;
29728;SDS011;20055;51.498;11.960;2022-12-18T01:34:17;109.97;;;39.42;;
29728;SDS011;20055;51.498;11.960;2022-12-18T01:36:43;101.70;;;36.53;;
29728;SDS011;20055;51.498;11.960;2022-12-18T01:39:11;98.28;;;37.10;;
29728;SDS011;20055;51.498;11.960;2022-12-18T01:41:41;115.80;;;40.42;;
29728;SDS011;20055;51.498;11.960;2022-12-18T01:47:14;115.38;;;42.83;;
29728;SDS011;20055;51.498;11.960;2022-12-18T01:49:42;110.20;;;38.75;;
29728;SDS011;20055;51.498;11.960;2022-12-18T01:52:08;110.72;;;40.17;;
29728;SDS011;20055;51.498;11.960;2022-12-18T01:54:36;102.72;;;39.05;;
29728;SDS011;20055;51.498;11.960;2022-12-18T01:57:02;106.25;;;39.50;;
29728;SDS011;20055;51.498;11.960;2022-12-18T01:59:29;112.63;;;40.80;;
29728;SDS011;20055;51.498;11.960;2022-12-18T02:01:56;108.28;;;40.28;;
29728;SDS011;20055;51.498;11.960;2022-12-18T02:04:25;114.32;;;39.40;;
29728;SDS011;20055;51.498;11.960;2022-12-18T02:06:54;129.57;;;43.75;;
29728;SDS011;20055;51.498;11.960;2022-12-18T02:09:45;115.68;;;42.15;;
29728;SDS011;20055;51.498;11.960;2022-12-18T02:17:22;113.35;;;42.40;;
29728;SDS011;20055;51.498;11.960;2022-12-18T02:20:08;128.75;;;42.60;;
29728;SDS011;20055;51.498;11.960;2022-12-18T02:27:45;126.10;;;38.25;;
29728;SDS011;20055;51.498;11.960;2022-12-18T02:30:12;119.85;;;42.65;;
29728;SDS011;20055;51.498;11.960;2022-12-18T02:32:41;113.78;;;42.42;;
29728;SDS011;20055;51.498;11.960;2022-12-18T02:35:11;135.52;;;41.08;;
29728;SDS011;20055;51.498;11.960;2022-12-18T02:37:40;145.00;;;43.58;;
29728;SDS011;20055;51.498;11.960;2022-12-18T02:40:07;126.22;;;41.28;;
29728;SDS011;20055;51.498;11.960;2022-12-18T02:42:36;140.98;;;40.38;;
29728;SDS011;20055;51.498;11.960;2022-12-18T02:45:05;149.40;;;42.20;;
29728;SDS011;20055;51.498;11.960;2022-12-18T02:47:35;130.32;;;40.75;;
29728;SDS011;20055;51.498;11.960;2022-12-18T02:50:15;122.80;;;41.70;;
29728;SDS011;20055;51.498;11.960;2022-12-18T03:03:46;137.88;;;38.85;;
29728;SDS011;20055;51.498;11.960;2022-12-18T03:06:18;116.15;;;37.72;;
29728;SDS011;20055;51.498;11.960;2022-12-18T03:08:48;112.20;;;38.30;;
29728;SDS011;20055;51.498;11.960;2022-12-18T03:11:16;122.03;;;39.70;;
29728;SDS011;20055;51.498;11.960;2022-12-18T03:14:05;121.72;;;39.38;;
29728;SDS011;20055;51.498;11.960;2022-12-18T03:16:34;120.22;;;38.85;;
29728;SDS011;20055;51.498;11.960;2022-12-18T03:21:40;133.02;;;38.88;;
29728;SDS011;20055;51.498;11.960;2022-12-18T03:24:09;120.82;;;38.00;;
29728;SDS011;20055;51.498;11.960;2022-12-18T03:26:37;126.70;;;37.47;;
29728;SDS011;20055;51.498;11.960;2022-12-18T03:29:17;114.45;;;39.75;;
29728;SDS011;20055;51.498;11.960;2022-12-18T03:31:47;113.90;;;39.35;;
29728;SDS011;20055;51.498;11.960;2022-12-18T03:34:17;119.93;;;38.55;;
29728;SDS011;20055;51.498;11.960;2022-12-18T03:36:46;118.70;;;38.08;;
29728;SDS011;20055;51.498;11.960;2022-12-18T03:39:14;108.30;;;36.47;;
29728;SDS011;20055;51.498;11.960;2022-12-18T03:41:45;111.75;;;39.30;;
29728;SDS011;20055;51.498;11.960;2022-12-18T03:44:21;105.70;;;38.08;;
29728;SDS011;20055;51.498;11.960;2022-12-18T03:52:04;96.18;;;35.33;;
29728;SDS011;20055;51.498;11.960;2022-12-18T03:54:32;120.65;;;37.30;;
29728;SDS011;20055;51.498;11.960;2022-12-18T03:57:11;107.20;;;38.47;;
29728;SDS011;20055;51.498;11.960;2022-12-18T03:59:40;112.47;;;36.70;;
29728;SDS011;20055;51.498;11.960;2022-12-18T04:02:07;99.75;;;36.40;;
29728;SDS011;20055;51.498;11.960;2022-12-18T04:04:35;110.97;;;38.28;;
29728;SDS011;20055;51.498;11.960;2022-12-18T04:07:04;111.00;;;39.28;;
29728;SDS011;20055;51.498;11.960;2022-12-18T04:09:33;110.15;;;37.38;;
29728;SDS011;20055;51.498;11.960;2022-12-18T04:12:00;94.40;;;36.17;;
29728;SDS011;20055;51.498;11.960;2022-12-18T04:14:27;100.93;;;37.35;;
29728;SDS011;20055;51.498;11.960;2022-12-18T04:16:55;95.38;;;37.00;;
29728;SDS011;20055;51.498;11.960;2022-12-18T04:19:28;105.35;;;36.83;;
29728;SDS011;20055;51.498;11.960;2022-12-18T04:21:55;101.13;;;33.60;;
29728;SDS011;20055;51.498;11.960;2022-12-18T04:24:22;89.90;;;32.70;;
29728;SDS011;20055;51.498;11.960;2022-12-18T04:27:02;106.65;;;34.38;;
29728;SDS011;20055;51.498;11.960;2022-12-18T04:29:32;91.38;;;34.55;;
29728;SDS011;20055;51.498;11.960;2022-12-18T04:32:00;127.43;;;38.65;;
29728;SDS011;20055;51.498;11.960;2022-12-18T04:34:28;105.00;;;36.20;;
29728;SDS011;20055;51.498;11.960;2022-12-18T04:36:55;109.93;;;35.78;;
29728;SDS011;20055;51.498;11.960;2022-12-18T04:39:22;122.68;;;36.28;;
29728;SDS011;20055;51.498;11.960;2022-12-18T04:41:52;118.03;;;36.17;;
29728;SDS011;20055;51.498;11.960;2022-12-18T04:44:18;111.95;;;35.50;;
29728;SDS011;20055;51.498;11.960;2022-12-18T04:46:45;111.97;;;37.30;;
29728;SDS011;20055;51.498;11.960;2022-12-18T04:49:11;108.88;;;37.70;;
29728;SDS011;20055;51.498;11.960;2022-12-18T04:51:38;113.60;;;37.88;;
29728;SDS011;20055;51.498;11.960;2022-12-18T04:54:05;96.20;;;35.88;;
29728;SDS011;20055;51.498;11.960;2022-12-18T04:56:31;101.60;;;34.85;;
29728;SDS011;20055;51.498;11.960;2022-12-18T04:58:58;109.63;;;35.58;;
29728;SDS011;20055;51.498;11.960;2022-12-18T05:01:25;102.15;;;35.95;;
29728;SDS011;20055;51.498;11.960;2022-12-18T05:03:51;109.97;;;36.78;;
29728;SDS011;20055;51.498;11.960;2022-12-18T05:06:18;108.60;;;37.05;;
29728;SDS011;20055;51.498;11.960;2022-12-18T05:08:45;99.38;;;37.13;;
29728;SDS011;20055;51.498;11.960;2022-12-18T05:11:12;109.97;;;36.25;;
29728;SDS011;20055;51.498;11.960;2022-12-18T05:13:45;118.43;;;36.40;;
29728;SDS011;20055;51.498;11.960;2022-12-18T05:16:11;98.97;;;36.90;;
29728;SDS011;20055;51.498;11.960;2022-12-18T05:18:38;107.97;;;33.80;;
29728;SDS011;20055;51.498;11.960;2022-12-18T05:21:05;102.68;;;37.58;;
29728;SDS011;20055;51.498;11.960;2022-12-18T05:23:31;105.88;;;36.00;;
29728;SDS011;20055;51.498;11.960;2022-12-18T05:25:59;103.88;;;34.00;;
29728;SDS011;20055;51.498;11.960;2022-12-18T05:28:26;101.50;;;33.63;;
29728;SDS011;20055;51.498;11.960;2022-12-18T05:30:55;112.05;;;34.60;;
29728;SDS011;20055;51.498;11.960;2022-12-18T05:33:22;118.35;;;36.05;;
29728;SDS011;20055;51.498;11.960;2022-12-18T05:35:53;92.80;;;31.65;;
29728;SDS011;20055;51.498;11.960;2022-12-18T05:38:20;96.50;;;32.97;;
29728;SDS011;20055;51.498;11.960;2022-12-18T05:40:47;96.75;;;35.90;;
29728;SDS011;20055;51.498;11.960;2022-12-18T05:43:14;98.15;;;32.97;;
29728;SDS011;20055;51.498;11.960;2022-12-18T05:45:41;102.18;;;32.83;;
29728;SDS011;20055;51.498;11.960;2022-12-18T05:48:08;102.10;;;33.40;;
29728;SDS011;20055;51.498;11.960;2022-12-18T05:50:35;95.50;;;34.65;;
29728;SDS011;20055;51.498;11.960;2022-12-18T05:53:02;99.03;;;35.72;;
29728;SDS011;20055;51.498;11.960;2022-12-18T05:55:32;97.85;;;33.08;;
29728;SDS011;20055;51.498;11.960;2022-12-18T05:57:59;63.65;;;23.05;;
29728;SDS011;20055;51.498;11.960;2022-12-18T06:00:25;118.07;;;35.95;;
29728;SDS011;20055;51.498;11.960;2022-12-18T06:02:52;104.57;;;34.03;;
29728;SDS011;20055;51.498;11.960;2022-12-18T06:05:18;95.03;;;34.53;;
29728;SDS011;20055;51.498;11.960;2022-12-18T06:07:45;95.85;;;34.03;;
29728;SDS011;20055;51.498;11.960;2022-12-18T06:10:11;103.55;;;33.83;;
29728;SDS011;20055;51.498;11.960;2022-12-18T06:12:37;106.93;;;35.03;;
29728;SDS011;20055;51.498;11.960;2022-12-18T06:15:04;89.18;;;32.13;;
29728;SDS011;20055;51.498;11.960;2022-12-18T06:17:31;114.03;;;35.42;;
29728;SDS011;20055;51.498;11.960;2022-12-18T06:19:58;119.15;;;35.35;;
29728;SDS011;20055;51.498;11.960;2022-12-18T06:22:25;98.97;;;33.22;;
29728;SDS011;20055;51.498;11.960;2022-12-18T06:24:51;97.95;;;32.65;;
29728;SDS011;20055;51.498;11.960;2022-12-18T06:27:18;93.00;;;32.75;;
29728;SDS011;20055;51.498;11.960;2022-12-18T06:29:44;89.50;;;33.42;;
29728;SDS011;20055;51.498;11.960;2022-12-18T06:32:11;99.72;;;30.85;;
29728;SDS011;20055;51.498;11.960;2022-12-18T06:34:37;92.43;;;32.60;;
29728;SDS011;20055;51.498;11.960;2022-12-18T06:37:04;96.03;;;31.90;;
29728;SDS011;20055;51.498;11.960;2022-12-18T06:39:31;100.45;;;35.53;;
29728;SDS011;20055;51.498;11.960;2022-12-18T06:41:57;103.05;;;33.88;;
29728;SDS011;20055;51.498;11.960;2022-12-18T06:44:24;89.70;;;31.40;;
29728;SDS011;20055;51.498;11.960;2022-12-18T06:46:50;96.43;;;33.03;;
29728;SDS011;20055;51.498;11.960;2022-12-18T06:49:17;104.55;;;32.50;;
29728;SDS011;20055;51.498;11.960;2022-12-18T06:51:43;93.60;;;34.38;;
29728;SDS011;20055;51.498;11.960;2022-12-18T06:54:10;109.18;;;35.75;;
29728;SDS011;20055;51.498;11.960;2022-12-18T06:56:36;98.07;;;33.30;;
29728;SDS011;20055;51.498;11.960;2022-12-18T06:59:03;94.68;;;32.75;;
29728;SDS011;20055;51.498;11.960;2022-12-18T07:01:29;83.25;;;31.52;;
29728;SDS011;20055;51.498;11.960;2022-12-18T07:03:56;102.38;;;32.55;;
29728;SDS011;20055;51.498;11.960;2022-12-18T07:06:23;87.85;;;30.73;;
29728;SDS011;20055;51.498;11.960;2022-12-18T07:08:50;85.78;;;31.25;;
29728;SDS011;20055;51.498;11.960;2022-12-18T07:11:18;90.65;;;31.95;;
29728;SDS011;20055;51.498;11.960;2022-12-18T07:13:45;85.38;;;30.73;;
29728;SDS011;20055;51.498;11.960;2022-12-18T07:16:16;89.95;;;33.08;;
29728;SDS011;20055;51.498;11.960;2022-12-18T07:18:43;91.63;;;29.38;;
29728;SDS011;20055;51.498;11.960;2022-12-18T07:21:10;88.22;;;30.13;;
29728;SDS011;20055;51.498;11.960;2022-12-18T07:23:38;92.53;;;32.03;;
29728;SDS011;20055;51.498;11.960;2022-12-18T07:26:06;87.30;;;31.98;;
29728;SDS011;20055;51.498;11.960;2022-12-18T07:28:33;88.30;;;30.08;;
29728;SDS011;20055;51.498;11.960;2022-12-18T07:31:03;74.13;;;28.83;;
29728;SDS011;20055;51.498;11.960;2022-12-18T07:33:30;92.65;;;29.35;;
29728;SDS011;20055;51.498;11.960;2022-12-18T07:35:58;79.65;;;29.17;;
29728;SDS011;20055;51.498;11.960;2022-12-18T07:38:24;76.93;;;27.98;;
29728;SDS011;20055;51.498;11.960;2022-12-18T07:40:51;90.88;;;30.90;;
29728;SDS011;20055;51.498;11.960;2022-12-18T07:43:17;81.72;;;30.73;;
29728;SDS011;20055;51.498;11.960;2022-12-18T07:45:44;79.60;;;29.92;;
29728;SDS011;20055;51.498;11.960;2022-12-18T07:48:11;81.43;;;30.05;;
29728;SDS011;20055;51.498;11.960;2022-12-18T07:50:38;85.85;;;31.42;;
29728;SDS011;20055;51.498;11.960;2022-12-18T07:53:05;84.78;;;28.23;;
29728;SDS011;20055;51.498;11.960;2022-12-18T07:55:31;89.10;;;29.42;;
29728;SDS011;20055;51.498;11.960;2022-12-18T07:58:00;80.95;;;30.23;;
29728;SDS011;20055;51.498;11.960;2022-12-18T08:00:27;83.87;;;30.43;;
29728;SDS011;20055;51.498;11.960;2022-12-18T08:02:53;86.20;;;30.67;;
29728;SDS011;20055;51.498;11.960;2022-12-18T08:05:20;75.28;;;28.60;;
29728;SDS011;20055;51.498;11.960;2022-12-18T08:07:46;91.25;;;31.55;;
29728;SDS011;20055;51.498;11.960;2022-12-18T08:10:13;77.68;;;30.33;;
29728;SDS011;20055;51.498;11.960;2022-12-18T08:12:39;88.97;;;29.13;;
29728;SDS011;20055;51.498;11.960;2022-12-18T08:15:06;79.80;;;29.50;;
29728;SDS011;20055;51.498;11.960;2022-12-18T08:17:33;82.15;;;31.17;;
29728;SDS011;20055;51.498;11.960;2022-12-18T08:19:59;87.72;;;32.90;;
29728;SDS011;20055;51.498;11.960;2022-12-18T08:22:26;77.80;;;29.83;;
29728;SDS011;20055;51.498;11.960;2022-12-18T08:24:52;84.78;;;30.17;;
29728;SDS011;20055;51.498;11.960;2022-12-18T08:27:19;68.10;;;26.85;;
29728;SDS011;20055;51.498;11.960;2022-12-18T08:29:45;78.28;;;29.15;;
29728;SDS011;20055;51.498;11.960;2022-12-18T08:32:12;78.80;;;30.08;;
29728;SDS011;20055;51.498;11.960;2022-12-18T08:34:38;67.47;;;30.40;;
29728;SDS011;20055;51.498;11.960;2022-12-18T08:37:05;75.25;;;30.63;;
29728;SDS011;20055;51.498;11.960;2022-12-18T08:39:32;67.05;;;27.80;;
29728;SDS011;20055;51.498;11.960;2022-12-18T08:42:00;72.55;;;27.83;;
29728;SDS011;20055;51.498;11.960;2022-12-18T08:44:45;57.65;;;24.05;;
29728;SDS011;20055;51.498;11.960;2022-12-18T08:47:11;69.25;;;28.20;;
29728;SDS011;20055;51.498;11.960;2022-12-18T08:49:38;73.10;;;26.13;;
29728;SDS011;20055;51.498;11.960;2022-12-18T08:52:04;76.15;;;26.48;;
29728;SDS011;20055;51.498;11.960;2022-12-18T08:54:31;69.15;;;29.33;;
29728;SDS011;20055;51.498;11.960;2022-12-18T08:56:58;79.25;;;28.23;;
29728;SDS011;20055;51.498;11.960;2022-12-18T08:59:24;93.65;;;33.67;;
29728;SDS011;20055;51.498;11.960;2022-12-18T09:01:53;81.93;;;30.13;;
29728;SDS011;20055;51.498;11.960;2022-12-18T09:04:19;83.53;;;31.30;;
29728;SDS011;20055;51.498;11.960;2022-12-18T09:06:46;84.60;;;29.83;;
29728;SDS011;20055;51.498;11.960;2022-12-18T09:09:13;86.75;;;30.38;;
29728;SDS011;20055;51.498;11.960;2022-12-18T09:11:40;77.45;;;27.73;;
29728;SDS011;20055;51.498;11.960;2022-12-18T09:14:08;75.13;;;30.35;;
29728;SDS011;20055;51.498;11.960;2022-12-18T09:16:35;76.28;;;28.88;;
29728;SDS011;20055;51.498;11.960;2022-12-18T09:19:02;63.72;;;28.70;;
29728;SDS011;20055;51.498;11.960;2022-12-18T09:21:30;68.10;;;26.73;;
29728;SDS011;20055;51.498;11.960;2022-12-18T09:23:58;71.07;;;30.35;;
29728;SDS011;20055;51.498;11.960;2022-12-18T09:26:25;72.05;;;29.95;;
29728;SDS011;20055;51.498;11.960;2022-12-18T09:28:52;78.15;;;31.23;;
29728;SDS011;20055;51.498;11.960;2022-12-18T09:31:20;85.28;;;32.30;;
29728;SDS011;20055;51.498;11.960;2022-12-18T09:33:48;75.05;;;29.42;;
29728;SDS011;20055;51.498;11.960;2022-12-18T09:36:15;55.92;;;22.45;;
29728;SDS011;20055;51.498;11.960;2022-12-18T09:38:42;54.78;;;21.40;;
29728;SDS011;20055;51.498;11.960;2022-12-18T09:41:18;42.78;;;19.58;;
29728;SDS011;20055;51.498;11.960;2022-12-18T09:49:13;49.25;;;20.52;;
29728;SDS011;20055;51.498;11.960;2022-12-18T09:51:49;52.42;;;20.05;;
29728;SDS011;20055;51.498;11.960;2022-12-18T09:54:22;55.15;;;23.45;;
29728;SDS011;20055;51.498;11.960;2022-12-18T09:56:50;51.47;;;21.98;;
29728;SDS011;20055;51.498;11.960;2022-12-18T09:59:38;51.70;;;20.02;;
29728;SDS011;20055;51.498;11.960;2022-12-18T10:02:21;60.00;;;22.00;;
29728;SDS011;20055;51.498;11.960;2022-12-18T10:05:10;48.67;;;19.05;;
29728;SDS011;20055;51.498;11.960;2022-12-18T10:07:43;51.72;;;20.75;;
29728;SDS011;20055;51.498;11.960;2022-12-18T10:10:19;46.72;;;19.88;;
29728;SDS011;20055;51.498;11.960;2022-12-18T10:12:53;49.15;;;21.25;;
29728;SDS011;20055;51.498;11.960;2022-12-18T10:15:34;44.22;;;17.83;;
29728;SDS011;20055;51.498;11.960;2022-12-18T10:23:22;44.45;;;17.45;;
29728;SDS011;20055;51.498;11.960;2022-12-18T10:25:53;39.95;;;17.38;;
29728;SDS011;20055;51.498;11.960;2022-12-18T10:28:21;40.47;;;16.02;;
29728;SDS011;20055;51.498;11.960;2022-12-18T10:30:49;39.22;;;16.15;;
29728;SDS011;20055;51.498;11.960;2022-12-18T10:33:20;40.45;;;16.17;;
29728;SDS011;20055;51.498;11.960;2022-12-18T10:35:49;37.97;;;17.23;;
29728;SDS011;20055;51.498;11.960;2022-12-18T10:43:25;42.83;;;16.10;;
29728;SDS011;20055;51.498;11.960;2022-12-18T10:46:02;38.85;;;15.75;;
29728;SDS011;20055;51.498;11.960;2022-12-18T10:48:35;35.10;;;16.42;;
29728;SDS011;20055;51.498;11.960;2022-12-18T10:51:02;36.10;;;15.82;;
29728;SDS011;20055;51.498;11.960;2022-12-18T10:53:30;35.85;;;15.70;;
29728;SDS011;20055;51.498;11.960;2022-12-18T10:56:00;37.08;;;15.88;;
29728;SDS011;20055;51.498;11.960;2022-12-18T10:58:29;35.75;;;16.85;;
29728;SDS011;20055;51.498;11.960;2022-12-18T11:01:02;34.78;;;15.57;;
29728;SDS011;20055;51.498;11.960;2022-12-18T11:03:30;41.55;;;16.38;;
29728;SDS011;20055;51.498;11.960;2022-12-18T11:06:30;34.92;;;16.42;;
29728;SDS011;20055;51.498;11.960;2022-12-18T11:08:59;32.65;;;15.20;;
29728;SDS011;20055;51.498;11.960;2022-12-18T11:11:26;36.40;;;15.82;;
29728;SDS011;20055;51.498;11.960;2022-12-18T11:14:02;40.65;;;17.00;;
29728;SDS011;20055;51.498;11.960;2022-12-18T11:16:30;43.60;;;18.10;;
29728;SDS011;20055;51.498;11.960;2022-12-18T11:21:44;40.38;;;15.68;;
29728;SDS011;20055;51.498;11.960;2022-12-18T11:24:19;35.33;;;15.82;;
29728;SDS011;20055;51.498;11.960;2022-12-18T11:26:46;31.65;;;13.73;;
29728;SDS011;20055;51.498;11.960;2022-12-18T11:29:17;33.55;;;16.27;;
29728;SDS011;20055;51.498;11.960;2022-12-18T11:31:44;37.38;;;15.70;;
29728;SDS011;20055;51.498;11.960;2022-12-18T11:34:23;42.42;;;18.85;;
29728;SDS011;20055;51.498;11.960;2022-12-18T11:39:18;38.72;;;16.27;;
29728;SDS011;20055;51.498;11.960;2022-12-18T11:41:48;34.33;;;16.92;;
29728;SDS011;20055;51.498;11.960;2022-12-18T11:47:19;45.17;;;17.15;;
29728;SDS011;20055;51.498;11.960;2022-12-18T11:49:49;42.58;;;17.30;;
29728;SDS011;20055;51.498;11.960;2022-12-18T11:54:51;42.92;;;16.90;;
29728;SDS011;20055;51.498;11.960;2022-12-18T12:00:22;43.00;;;16.05;;
29728;SDS011;20055;51.498;11.960;2022-12-18T12:05:28;28.30;;;13.15;;
29728;SDS011;20055;51.498;11.960;2022-12-18T12:13:23;37.83;;;16.20;;
29728;SDS011;20055;51.498;11.960;2022-12-18T12:15:57;27.73;;;13.43;;
29728;SDS011;20055;51.498;11.960;2022-12-18T12:23:31;35.60;;;14.50;;
29728;SDS011;20055;51.498;11.960;2022-12-18T12:26:15;27.80;;;13.48;;
29728;SDS011;20055;51.498;11.960;2022-12-18T12:29:01;39.47;;;15.65;;
29728;SDS011;20055;51.498;11.960;2022-12-18T12:34:17;35.72;;;14.65;;
29728;SDS011;20055;51.498;11.960;2022-12-18T12:39:20;35.38;;;15.75;;
29728;SDS011;20055;51.498;11.960;2022-12-18T12:41:48;31.33;;;13.93;;
29728;SDS011;20055;51.498;11.960;2022-12-18T12:44:42;25.45;;;12.95;;
29728;SDS011;20055;51.498;11.960;2022-12-18T12:47:12;22.00;;;12.98;;
29728;SDS011;20055;51.498;11.960;2022-12-18T12:49:40;27.77;;;12.93;;
29728;SDS011;20055;51.498;11.960;2022-12-18T12:52:18;25.63;;;12.60;;
29728;SDS011;20055;51.498;11.960;2022-12-18T12:54:47;28.38;;;13.10;;
29728;SDS011;20055;51.498;11.960;2022-12-18T13:00:09;28.92;;;11.88;;
29728;SDS011;20055;51.498;11.960;2022-12-18T13:02:52;29.52;;;12.57;;
29728;SDS011;20055;51.498;11.960;2022-12-18T13:07:54;22.92;;;11.40;;
29728;SDS011;20055;51.498;11.960;2022-12-18T13:10:32;34.50;;;13.15;;
29728;SDS011;20055;51.498;11.960;2022-12-18T13:13:09;23.42;;;12.48;;
29728;SDS011;20055;51.498;11.960;2022-12-18T13:15:38;36.47;;;15.07;;
29728;SDS011;20055;51.498;11.960;2022-12-18T13:25:51;29.73;;;13.48;;
29728;SDS011;20055;51.498;11.960;2022-12-18T13:28:21;26.48;;;12.70;;
29728;SDS011;20055;51.498;11.960;2022-12-18T13:30:54;27.70;;;12.98;;
29728;SDS011;20055;51.498;11.960;2022-12-18T13:35:52;21.17;;;12.07;;
29728;SDS011;20055;51.498;11.960;2022-12-18T13:45:49;28.33;;;15.02;;
29728;SDS011;20055;51.498;11.960;2022-12-18T13:48:16;37.60;;;16.60;;
29728;SDS011;20055;51.498;11.960;2022-12-18T13:50:48;43.67;;;17.42;;
29728;SDS011;20055;51.498;11.960;2022-12-18T13:53:23;33.92;;;15.93;;
29728;SDS011;20055;51.498;11.960;2022-12-18T13:55:51;33.63;;;16.45;;
29728;SDS011;20055;51.498;11.960;2022-12-18T13:58:17;36.50;;;17.60;;
29728;SDS011;20055;51.498;11.960;2022-12-18T14:00:44;37.55;;;16.42;;
29728;SDS011;20055;51.498;11.960;2022-12-18T14:03:18;44.67;;;19.65;;
29728;SDS011;20055;51.498;11.960;2022-12-18T14:05:46;37.95;;;17.42;;
29728;SDS011;20055;51.498;11.960;2022-12-18T14:08:18;35.53;;;16.85;;
29728;SDS011;20055;51.498;11.960;2022-12-18T14:10:45;34.97;;;17.35;;
29728;SDS011;20055;51.498;11.960;2022-12-18T14:13:21;43.28;;;18.77;;
29728;SDS011;20055;51.498;11.960;2022-12-18T14:15:49;40.97;;;19.83;;
29728;SDS011;20055;51.498;11.960;2022-12-18T14:18:19;44.45;;;18.92;;
29728;SDS011;20055;51.498;11.960;2022-12-18T14:20:47;44.53;;;18.70;;
29728;SDS011;20055;51.498;11.960;2022-12-18T14:26:00;47.22;;;21.30;;
29728;SDS011;20055;51.498;11.960;2022-12-18T14:28:28;52.50;;;21.25;;
29728;SDS011;20055;51.498;11.960;2022-12-18T14:30:55;40.20;;;19.45;;
29728;SDS011;20055;51.498;11.960;2022-12-18T14:33:22;48.00;;;21.70;;
29728;SDS011;20055;51.498;11.960;2022-12-18T14:36:00;53.15;;;21.90;;
29728;SDS011;20055;51.498;11.960;2022-12-18T14:38:28;41.03;;;19.83;;
29728;SDS011;20055;51.498;11.960;2022-12-18T14:40:57;53.70;;;23.30;;
29728;SDS011;20055;51.498;11.960;2022-12-18T14:43:24;54.08;;;22.75;;
29728;SDS011;20055;51.498;11.960;2022-12-18T14:45:52;53.92;;;21.23;;
29728;SDS011;20055;51.498;11.960;2022-12-18T14:51:14;61.67;;;24.27;;
29728;SDS011;20055;51.498;11.960;2022-12-18T14:53:43;51.72;;;21.60;;
29728;SDS011;20055;51.498;11.960;2022-12-18T14:56:15;61.75;;;23.38;;
29728;SDS011;20055;51.498;11.960;2022-12-18T15:01:51;60.42;;;24.15;;
29728;SDS011;20055;51.498;11.960;2022-12-18T15:07:02;62.15;;;24.85;;
29728;SDS011;20055;51.498;11.960;2022-12-18T15:09:30;60.05;;;24.45;;
29728;SDS011;20055;51.498;11.960;2022-12-18T15:11:58;61.22;;;23.25;;
29728;SDS011;20055;51.498;11.960;2022-12-18T15:17:04;56.65;;;23.35;;
29728;SDS011;20055;51.498;11.960;2022-12-18T15:19:37;57.67;;;23.47;;
29728;SDS011;20055;51.498;11.960;2022-12-18T15:22:12;72.40;;;25.42;;
29728;SDS011;20055;51.498;11.960;2022-12-18T15:24:52;61.88;;;25.13;;
29728;SDS011;20055;51.498;11.960;2022-12-18T15:30:26;70.10;;;25.55;;
29728;SDS011;20055;51.498;11.960;2022-12-18T15:32:49;59.53;;;25.35;;
29728;SDS011;20055;51.498;11.960;2022-12-18T15:35:23;62.10;;;23.60;;
29728;SDS011;20055;51.498;11.960;2022-12-18T15:37:50;60.53;;;23.85;;
29728;SDS011;20055;51.498;11.960;2022-12-18T15:40:21;58.33;;;25.95;;
29728;SDS011;20055;51.498;11.960;2022-12-18T15:42:48;60.03;;;25.25;;
29728;SDS011;20055;51.498;11.960;2022-12-18T15:45:33;64.70;;;27.58;;
29728;SDS011;20055;51.498;11.960;2022-12-18T15:48:00;66.00;;;28.13;;
29728;SDS011;20055;51.498;11.960;2022-12-18T15:50:27;68.82;;;27.30;;
29728;SDS011;20055;51.498;11.960;2022-12-18T15:52:54;61.22;;;27.35;;
29728;SDS011;20055;51.498;11.960;2022-12-18T15:55:23;64.63;;;26.50;;
29728;SDS011;20055;51.498;11.960;2022-12-18T15:58:09;58.22;;;25.75;;
29728;SDS011;20055;51.498;11.960;2022-12-18T16:00:37;62.25;;;25.52;;
29728;SDS011;20055;51.498;11.960;2022-12-18T16:03:04;66.22;;;27.08;;
29728;SDS011;20055;51.498;11.960;2022-12-18T16:05:31;75.75;;;29.42;;
29728;SDS011;20055;51.498;11.960;2022-12-18T16:07:57;71.38;;;28.42;;
29728;SDS011;20055;51.498;11.960;2022-12-18T16:10:25;67.05;;;29.25;;
29728;SDS011;20055;51.498;11.960;2022-12-18T16:12:52;82.85;;;31.20;;
29728;SDS011;20055;51.498;11.960;2022-12-18T16:15:19;70.53;;;27.45;;